Time;durP1;ratioP1;P1;durP2;ratioP2;P2;SDS_P1;SDS_P2;PMS_P1;PMS_P2;Temp;Humidity;BMP_temperature;BMP_pressure;BME280_temperature;BME280_humidity;BME280_pressure;Samples;Min_cycle;Max_cycle;Signal;HPM_P1;HPM_P2
2023/05/11 00:00:02;;;;;;;0.50;0.50;;;;;;;13.45;36.66;100531.47;4986982;28;20022;-67
2023/05/11 00:02:27;;;;;;;0.30;0.30;;;;;;;13.21;37.14;100526.63;5004825;28;20022;-67
2023/05/11 00:04:54;;;;;;;0.38;0.38;;;;;;;13.04;37.51;100524.31;5004902;28;20023;-67
2023/05/11 00:07:19;;;;;;;0.30;0.30;;;;;;;13.43;36.88;100533.22;5004573;28;20351;-66
2023/05/11 00:09:44;;;;;;;1.67;1.60;;;;;;;13.11;37.41;100530.31;5016960;23;20051;-66
2023/05/11 00:12:11;;;;;;;0.40;0.40;;;;;;;13.47;36.72;100532.28;5004681;28;20145;-66
2023/05/11 00:14:36;;;;;;;0.30;0.30;;;;;;;13.29;37.16;100536.09;5004334;28;20053;-66
2023/05/11 00:17:02;;;;;;;0.30;0.30;;;;;;;13.10;37.51;100526.81;5004676;28;20034;-66
2023/05/11 00:19:30;;;;;;;0.38;0.38;;;;;;;13.02;37.66;100532.16;5005908;23;20122;-64
2023/05/11 00:21:55;;;;;;;0.30;0.30;;;;;;;13.19;37.48;100530.16;4984598;28;20478;-63
2023/05/11 00:24:21;;;;;;;0.77;0.77;;;;;;;13.00;37.95;100540.91;4984921;28;20094;-64
2023/05/11 00:26:46;;;;;;;0.30;0.30;;;;;;;12.98;37.96;100533.13;4985037;28;20033;-65
2023/05/11 00:29:12;;;;;;;0.30;0.30;;;;;;;13.20;37.68;100537.09;4987457;28;20083;-63
2023/05/11 00:31:37;;;;;;;0.50;0.50;;;;;;;12.90;38.05;100534.97;4988586;28;20027;-64
2023/05/11 00:34:02;;;;;;;0.30;0.30;;;;;;;13.06;37.75;100529.50;4988431;28;20027;-63
2023/05/11 00:36:28;;;;;;;0.40;0.40;;;;;;;13.06;37.76;100534.72;4994751;23;20050;-66
2023/05/11 00:38:53;;;;;;;0.60;0.60;;;;;;;12.69;38.47;100524.00;4987545;28;20027;-66
2023/05/11 00:41:19;;;;;;;0.30;0.30;;;;;;;12.72;38.73;100538.72;4988150;28;20090;-66
2023/05/11 00:43:44;;;;;;;0.50;0.50;;;;;;;12.86;38.61;100534.16;4988262;28;20036;-66
2023/05/11 00:46:09;;;;;;;0.95;0.95;;;;;;;12.92;38.54;100542.78;4988179;28;20059;-66
2023/05/11 00:48:35;;;;;;;0.30;0.30;;;;;;;12.69;38.70;100536.16;4987928;28;20030;-66
2023/05/11 00:51:02;;;;;;;0.43;0.43;;;;;;;12.62;39.02;100536.25;4997341;23;20033;-64
2023/05/11 00:53:27;;;;;;;0.30;0.30;;;;;;;12.45;39.50;100538.25;5001799;23;20098;-66
2023/05/11 00:55:53;;;;;;;0.30;0.30;;;;;;;12.72;39.02;100536.13;4987831;28;20038;-66
2023/05/11 00:58:19;;;;;;;0.50;0.50;;;;;;;12.54;39.46;100535.50;4986572;28;20027;-66
2023/05/11 01:00:46;;;;;;;0.40;0.40;;;;;;;12.34;39.69;100531.47;5002455;23;20070;-65
2023/05/11 01:03:13;;;;;;;1.05;1.05;;;;;;;12.48;39.49;100540.81;5011822;23;20054;-67
2023/05/11 01:06:09;;;;;;;0.40;0.40;;;;;;;12.77;39.36;100549.94;4993916;23;20031;-63
2023/05/11 01:09:18;;;;;;;0.40;0.40;;;;;;;12.43;39.90;100542.63;5014589;23;20065;-63
2023/05/11 01:14:37;;;;;;;1.10;1.10;;;;;;;12.39;40.06;100537.47;5014876;23;20137;-64
2023/05/11 01:17:09;;;;;;;0.70;0.70;;;;;;;12.38;40.14;100532.28;5012894;23;20105;-64
2023/05/11 01:19:47;;;;;;;0.40;0.40;;;;;;;12.46;40.29;100540.84;5005535;23;20046;-67
2023/05/11 01:23:02;;;;;;;0.40;0.40;;;;;;;12.08;40.69;100537.88;4986574;28;20389;-67
2023/05/11 01:25:58;;;;;;;0.30;0.30;;;;;;;12.17;40.65;100534.31;4935910;29;20523;-66
2023/05/11 01:28:42;;;;;;;0.30;0.30;;;;;;;12.26;40.57;100541.13;4965675;29;20037;-66
2023/05/11 01:31:14;;;;;;;0.50;0.50;;;;;;;12.23;40.68;100533.34;4965688;29;20047;-66
2023/05/11 01:34:11;;;;;;;1.02;1.02;;;;;;;12.10;40.91;100536.13;4965376;29;20042;-67
2023/05/11 01:36:43;;;;;;;0.70;0.70;;;;;;;11.99;41.11;100538.81;4965730;29;20034;-66
2023/05/11 01:39:11;;;;;;;0.40;0.40;;;;;;;12.00;41.13;100537.06;4965079;28;20034;-65
2023/05/11 01:41:39;;;;;;;0.30;0.30;;;;;;;12.10;40.95;100528.31;4997654;23;20449;-63
2023/05/11 01:46:34;;;;;;;0.40;0.40;;;;;;;12.30;40.70;100537.56;5011167;23;20073;-63
2023/05/11 01:49:04;;;;;;;0.30;0.30;;;;;;;12.21;40.85;100537.69;5006600;28;20022;-63
2023/05/11 01:51:35;;;;;;;0.30;0.30;;;;;;;12.05;41.34;100531.78;5005854;23;20050;-66
2023/05/11 01:54:04;;;;;;;0.90;0.87;;;;;;;12.12;41.12;100544.75;4986578;28;20058;-66
2023/05/11 01:56:32;;;;;;;0.30;0.30;;;;;;;12.10;41.33;100537.84;4987086;28;20427;-66
2023/05/11 01:58:58;;;;;;;0.98;0.98;;;;;;;12.14;41.13;100550.78;4986691;28;20026;-66
2023/05/11 02:01:27;;;;;;;0.40;0.40;;;;;;;12.06;41.38;100533.53;4986927;28;20030;-66
2023/05/11 02:03:54;;;;;;;0.30;0.30;;;;;;;11.93;41.63;100544.09;4986680;28;20019;-67
2023/05/11 02:06:21;;;;;;;0.32;0.32;;;;;;;12.24;41.04;100546.34;4986759;28;20055;-66
2023/05/11 02:08:48;;;;;;;0.45;0.45;;;;;;;11.94;41.50;100518.94;4986523;28;20014;-66
2023/05/11 02:11:15;;;;;;;0.40;0.40;;;;;;;12.09;41.41;100556.94;4969229;28;20030;-67
2023/05/11 02:13:42;;;;;;;0.50;0.50;;;;;;;12.30;41.31;100540.19;4986442;28;20022;-67
2023/05/11 02:16:09;;;;;;;0.30;0.30;;;;;;;12.57;40.82;100548.47;4986578;28;20038;-66
2023/05/11 02:18:39;;;;;;;0.30;0.30;;;;;;;12.70;40.60;100551.78;5009596;23;20051;-64
2023/05/11 02:21:08;;;;;;;0.40;0.40;;;;;;;12.31;41.36;100552.34;4988533;28;20331;-63
2023/05/11 02:23:56;;;;;;;0.30;0.30;;;;;;;12.37;41.40;100553.97;5021319;23;20053;-64
2023/05/11 02:26:25;;;;;;;0.82;0.82;;;;;;;12.55;41.12;100559.81;5019283;23;20046;-63
2023/05/11 02:28:51;;;;;;;13.50;1.27;;;;;;;12.52;41.29;100555.53;4986122;28;20042;-64
2023/05/11 02:31:19;;;;;;;0.80;0.80;;;;;;;12.27;41.60;100550.63;4986310;28;20028;-63
2023/05/11 02:33:49;;;;;;;0.70;0.70;;;;;;;12.58;41.53;100547.63;4986159;28;20102;-64
2023/05/11 02:36:18;;;;;;;0.50;0.50;;;;;;;12.50;41.37;100557.28;4986359;28;20030;-64
2023/05/11 02:38:45;;;;;;;0.40;0.40;;;;;;;12.33;41.88;100557.53;4985868;28;20022;-64
2023/05/11 02:41:15;;;;;;;0.30;0.30;;;;;;;12.40;41.62;100553.94;4986597;28;20041;-62
2023/05/11 02:46:15;;;;;;;0.40;0.40;;;;;;;12.49;41.68;100560.78;4982971;28;20049;-64
2023/05/11 02:48:44;;;;;;;1.05;1.05;;;;;;;12.35;41.99;100555.72;5002125;23;20881;-64
2023/05/11 02:51:13;;;;;;;0.32;0.32;;;;;;;12.39;42.12;100555.69;5004594;28;20099;-63
2023/05/11 02:53:41;;;;;;;0.40;0.40;;;;;;;12.56;41.76;100567.59;5005216;28;20082;-63
2023/05/11 02:56:07;;;;;;;0.40;0.40;;;;;;;12.47;41.99;100572.94;5005431;28;20038;-65
2023/05/11 02:58:33;;;;;;;0.40;0.40;;;;;;;12.57;41.77;100561.50;5011632;23;20096;-63
2023/05/11 03:00:59;;;;;;;0.40;0.40;;;;;;;12.32;42.41;100566.19;5003350;28;20038;-64
2023/05/11 03:03:26;;;;;;;1.10;1.10;;;;;;;12.57;42.08;100574.53;5005084;28;20030;-64
2023/05/11 03:05:52;;;;;;;0.40;0.40;;;;;;;12.43;42.23;100573.88;5005108;28;20018;-64
2023/05/11 03:08:18;;;;;;;0.32;0.32;;;;;;;12.25;42.76;100568.88;5004533;28;20112;-63
2023/05/11 03:10:45;;;;;;;0.40;0.40;;;;;;;12.15;42.78;100569.88;5005073;28;20264;-63
2023/05/11 03:13:11;;;;;;;0.40;0.40;;;;;;;12.08;43.22;100576.03;5005108;28;20109;-64
2023/05/11 03:15:37;;;;;;;0.43;0.43;;;;;;;12.00;43.44;100570.88;4987443;28;20057;-64
2023/05/11 03:18:05;;;;;;;0.50;0.50;;;;;;;12.25;42.99;100579.28;5005135;28;20482;-64
2023/05/11 03:20:59;;;;;;;0.47;0.47;;;;;;;12.66;42.60;100580.50;5013731;23;20487;-63
2023/05/11 03:23:26;;;;;;;0.60;0.60;;;;;;;12.36;43.01;100578.31;4966017;29;20047;-63
2023/05/11 03:25:52;;;;;;;0.30;0.30;;;;;;;12.40;43.38;100585.19;4966375;29;20128;-65
2023/05/11 03:28:18;;;;;;;0.30;0.30;;;;;;;12.31;43.24;100588.78;4966230;29;20480;-63
2023/05/11 03:30:45;;;;;;;0.30;0.30;;;;;;;12.58;42.81;100585.81;4966297;29;20035;-63
2023/05/11 03:35:42;;;;;;;0.30;0.30;;;;;;;12.85;42.24;100589.78;4988097;23;20425;-66
2023/05/11 03:38:10;;;;;;;1.58;1.55;;;;;;;12.85;42.43;100592.38;4983456;28;20034;-65
2023/05/11 03:40:37;;;;;;;0.55;0.55;;;;;;;12.82;42.59;100589.81;4983660;28;20038;-67
2023/05/11 03:43:04;;;;;;;0.30;0.30;;;;;;;12.71;42.87;100568.28;4983603;28;20130;-66
2023/05/11 03:45:32;;;;;;;0.32;0.32;;;;;;;12.95;42.33;100592.25;4983582;28;20033;-67
2023/05/11 03:47:58;;;;;;;0.30;0.30;;;;;;;13.27;41.72;100601.28;4996365;23;20054;-64
2023/05/11 03:50:26;;;;;;;0.40;0.40;;;;;;;13.18;42.17;100594.47;5004775;28;20046;-65
2023/05/11 03:52:52;;;;;;;0.40;0.40;;;;;;;13.08;42.15;100596.34;5004290;23;20053;-63
2023/05/11 03:55:17;;;;;;;0.30;0.30;;;;;;;13.54;41.36;100604.34;5004616;28;20030;-63
2023/05/11 03:57:43;;;;;;;0.52;0.52;;;;;;;13.60;41.00;100587.72;5004816;28;20053;-63
2023/05/11 04:00:10;;;;;;;0.30;0.30;;;;;;;13.37;41.78;100595.03;5004630;28;20553;-63
2023/05/11 04:02:36;;;;;;;0.30;0.30;;;;;;;13.46;41.61;100601.84;5004984;28;20334;-63
2023/05/11 04:05:11;;;;;;;0.45;0.45;;;;;;;13.72;41.24;100600.53;5013641;23;20014;-64
2023/05/11 04:07:37;;;;;;;0.43;0.43;;;;;;;13.86;40.79;100605.50;5013007;23;20126;-63
2023/05/11 04:10:05;;;;;;;0.30;0.30;;;;;;;13.70;41.39;100609.28;5008099;28;20023;-64
2023/05/11 04:12:31;;;;;;;0.30;0.30;;;;;;;14.14;40.33;100604.09;5008349;28;20094;-63
2023/05/11 04:14:56;;;;;;;9.73;2.05;;;;;;;13.88;41.08;100610.72;5007799;28;20157;-63
2023/05/11 04:17:22;;;;;;;0.30;0.30;;;;;;;14.19;40.48;100610.09;5008501;28;20105;-63
2023/05/11 04:19:47;;;;;;;0.35;0.35;;;;;;;14.12;40.66;100606.72;5021810;23;20038;-64
2023/05/11 04:22:13;;;;;;;0.30;0.30;;;;;;;14.26;40.28;100608.22;5007992;28;20389;-64
2023/05/11 04:24:38;;;;;;;2.05;1.33;;;;;;;14.15;40.60;100599.75;5007950;28;20038;-64
2023/05/11 04:27:04;;;;;;;0.30;0.30;;;;;;;14.17;40.75;100616.25;5008149;28;20116;-63
2023/05/11 04:29:30;;;;;;;0.30;0.30;;;;;;;14.43;40.29;100613.09;5007771;28;20022;-64
2023/05/11 04:31:55;;;;;;;0.77;0.77;;;;;;;14.40;40.26;100604.44;5007732;28;20049;-63
2023/05/11 04:34:21;;;;;;;0.30;0.30;;;;;;;14.57;39.92;100612.78;5008036;28;20117;-63
2023/05/11 04:36:50;;;;;;;0.40;0.40;;;;;;;14.60;40.16;100611.88;5007775;28;20031;-64
2023/05/11 04:39:16;;;;;;;0.45;0.45;;;;;;;14.67;39.90;100617.78;5007698;28;20125;-64
2023/05/11 04:41:42;;;;;;;0.82;0.82;;;;;;;14.92;39.11;100606.84;5007761;28;20060;-64
2023/05/11 04:44:08;;;;;;;0.25;0.25;;;;;;;14.82;39.59;100614.91;5007782;28;20033;-63
2023/05/11 04:46:33;;;;;;;0.82;0.82;;;;;;;14.81;39.94;100621.00;5007689;28;20022;-63
2023/05/11 04:48:59;;;;;;;0.30;0.30;;;;;;;15.26;38.76;100618.22;5007507;28;20049;-63
2023/05/11 04:51:24;;;;;;;0.30;0.30;;;;;;;15.32;38.89;100615.47;5007895;28;20470;-63
2023/05/11 04:53:50;;;;;;;0.30;0.30;;;;;;;15.27;38.70;100619.94;5007592;28;20030;-64
2023/05/11 04:56:15;;;;;;;1.15;1.08;;;;;;;15.24;39.09;100632.19;5007646;28;20026;-62
2023/05/11 04:58:40;;;;;;;28.58;2.55;;;;;;;15.47;38.61;100625.53;5007675;28;20148;-62
2023/05/11 05:01:06;;;;;;;0.47;0.47;;;;;;;15.30;38.93;100623.34;5007747;28;20514;-63
2023/05/11 05:03:31;;;;;;;0.30;0.30;;;;;;;15.26;39.25;100632.16;5007611;28;20099;-62
2023/05/11 05:05:57;;;;;;;0.45;0.45;;;;;;;15.52;38.65;100635.03;5007655;28;20018;-61
2023/05/11 05:08:22;;;;;;;0.47;0.47;;;;;;;15.52;38.50;100633.28;5007511;28;20105;-63
2023/05/11 05:10:48;;;;;;;0.30;0.30;;;;;;;15.71;38.53;100638.03;5007498;28;20430;-63
2023/05/11 05:13:15;;;;;;;0.30;0.30;;;;;;;15.74;38.19;100645.78;5007538;28;20048;-62
2023/05/11 05:15:41;;;;;;;0.30;0.30;;;;;;;15.78;38.18;100652.69;5006131;28;20390;-62
2023/05/11 05:18:06;;;;;;;0.30;0.30;;;;;;;15.46;39.17;100642.13;5007470;28;20034;-62
2023/05/11 05:20:33;;;;;;;0.30;0.30;;;;;;;15.81;38.07;100628.19;5007120;28;20135;-61
2023/05/11 05:22:59;;;;;;;1.88;1.75;;;;;;;16.09;37.69;100648.38;5007566;28;20058;-62
2023/05/11 05:25:25;;;;;;;0.30;0.30;;;;;;;16.17;37.71;100663.88;5007049;28;20390;-62
2023/05/11 05:27:50;;;;;;;0.30;0.30;;;;;;;16.11;37.92;100654.44;5007124;28;20026;-62
2023/05/11 05:30:15;;;;;;;0.30;0.30;;;;;;;16.04;38.12;100645.06;5007070;28;20026;-62
2023/05/11 05:32:41;;;;;;;0.57;0.57;;;;;;;16.40;37.81;100662.38;5007141;28;20045;-62
2023/05/11 05:35:07;;;;;;;0.30;0.30;;;;;;;16.81;36.89;100651.56;5006939;28;20032;-62
2023/05/11 05:37:32;;;;;;;0.30;0.30;;;;;;;16.63;37.79;100650.38;5007063;28;20037;-64
2023/05/11 05:39:58;;;;;;;0.40;0.40;;;;;;;17.06;36.85;100662.16;5006556;28;20030;-63
2023/05/11 05:42:23;;;;;;;0.30;0.30;;;;;;;16.79;36.91;100669.97;5006975;28;20033;-63
2023/05/11 05:44:48;;;;;;;0.30;0.30;;;;;;;16.56;37.11;100679.41;5006848;28;20022;-64
2023/05/11 05:47:14;;;;;;;0.65;0.65;;;;;;;16.23;37.75;100672.44;5006950;28;20101;-62
2023/05/11 05:49:39;;;;;;;0.55;0.55;;;;;;;15.92;38.19;100672.38;5006727;28;20018;-63
2023/05/11 05:52:05;;;;;;;0.25;0.25;;;;;;;15.73;38.62;100671.09;5007018;28;20033;-63
2023/05/11 05:54:30;;;;;;;0.30;0.30;;;;;;;15.76;38.68;100679.78;5006531;28;20054;-61
2023/05/11 05:56:56;;;;;;;0.30;0.30;;;;;;;15.51;39.53;100689.09;5006848;28;20130;-63
2023/05/11 05:59:23;;;;;;;0.30;0.30;;;;;;;15.38;39.97;100685.06;5006496;28;20068;-63
2023/05/11 06:01:49;;;;;;;0.30;0.30;;;;;;;15.22;40.07;100688.06;5006736;28;20042;-63
2023/05/11 06:04:15;;;;;;;0.30;0.30;;;;;;;15.28;40.29;100682.69;5006318;28;20018;-63
2023/05/11 06:06:40;;;;;;;0.30;0.30;;;;;;;15.77;40.03;100692.81;5006674;28;20418;-63
2023/05/11 06:09:06;;;;;;;0.30;0.30;;;;;;;16.42;39.16;100698.13;5006238;28;20371;-62
2023/05/11 06:11:32;;;;;;;0.68;0.68;;;;;;;16.78;37.71;100696.22;5006526;28;20022;-62
2023/05/11 06:13:57;;;;;;;0.30;0.30;;;;;;;16.75;37.54;100697.19;5006424;28;20022;-63
2023/05/11 06:16:24;;;;;;;0.30;0.30;;;;;;;16.65;38.60;100703.59;5006474;28;20113;-63
2023/05/11 06:18:50;;;;;;;0.30;0.30;;;;;;;17.15;38.12;100697.78;5006351;28;20022;-63
2023/05/11 06:21:15;;;;;;;0.32;0.32;;;;;;;17.97;36.81;100701.25;5006204;28;20106;-63
2023/05/11 06:23:40;;;;;;;0.28;0.28;;;;;;;18.48;36.03;100711.75;5006000;28;20030;-62
2023/05/11 06:26:06;;;;;;;1.02;1.02;;;;;;;18.69;35.21;100698.72;5005917;28;20077;-62
2023/05/11 06:28:31;;;;;;;0.20;0.20;;;;;;;18.55;35.30;100707.09;5006115;28;20036;-62
2023/05/11 06:30:58;;;;;;;0.40;0.40;;;;;;;18.60;34.44;100715.69;5006065;28;20018;-62
2023/05/11 06:33:24;;;;;;;0.63;0.63;;;;;;;18.27;35.29;100708.13;5006379;28;20022;-63
2023/05/11 06:35:49;;;;;;;0.30;0.30;;;;;;;18.27;35.41;100713.38;5005974;28;20123;-62
2023/05/11 06:38:15;;;;;;;0.30;0.30;;;;;;;18.21;35.30;100709.22;5006072;28;20022;-63
2023/05/11 06:40:40;;;;;;;0.57;0.57;;;;;;;17.95;35.93;100708.31;5005848;28;20026;-65
2023/05/11 06:43:06;;;;;;;0.20;0.20;;;;;;;18.04;35.50;100697.47;5006325;28;20462;-63
2023/05/11 06:45:31;;;;;;;0.43;0.43;;;;;;;17.87;35.37;100710.34;5005918;28;20101;-64
2023/05/11 06:47:56;;;;;;;0.30;0.30;;;;;;;17.74;35.80;100710.75;5005934;28;20085;-63
2023/05/11 06:50:22;;;;;;;0.20;0.20;;;;;;;17.36;36.78;100716.38;5005535;28;20026;-62
2023/05/11 06:52:47;;;;;;;0.30;0.30;;;;;;;17.22;37.00;100709.78;5005917;28;20022;-63
2023/05/11 06:55:13;;;;;;;0.30;0.30;;;;;;;16.97;37.48;100689.53;5005605;28;20101;-63
2023/05/11 06:57:39;;;;;;;0.20;0.20;;;;;;;16.94;37.63;100713.22;5005773;28;20026;-63
2023/05/11 07:00:05;;;;;;;0.20;0.20;;;;;;;16.83;38.05;100718.81;5005621;28;20026;-62
2023/05/11 07:02:30;;;;;;;5.68;1.58;;;;;;;16.91;38.10;100715.09;5005661;28;20026;-61
2023/05/11 07:04:57;;;;;;;1.35;1.30;;;;;;;17.14;37.88;100722.28;5005503;28;20026;-63
2023/05/11 07:07:22;;;;;;;0.20;0.20;;;;;;;17.38;37.46;100719.78;5005789;28;20030;-63
2023/05/11 07:09:48;;;;;;;0.73;0.73;;;;;;;17.14;37.84;100730.13;5005366;28;20080;-62
2023/05/11 07:12:13;;;;;;;0.77;0.77;;;;;;;17.03;38.09;100717.31;5005633;28;20058;-62
2023/05/11 07:14:39;;;;;;;0.20;0.20;;;;;;;17.12;38.06;100734.59;5005318;28;20033;-63
2023/05/11 07:17:04;;;;;;;1.42;1.38;;;;;;;17.29;37.71;100723.56;5005716;28;20026;-63
2023/05/11 07:19:30;;;;;;;0.20;0.20;;;;;;;17.02;38.42;100733.97;5005385;28;20521;-63
2023/05/11 07:21:55;;;;;;;0.45;0.45;;;;;;;17.05;38.42;100728.63;5005503;28;20061;-63
2023/05/11 07:24:20;;;;;;;1.48;1.38;;;;;;;17.22;38.37;100730.78;5005347;28;20026;-62
2023/05/11 07:26:47;;;;;;;0.20;0.20;;;;;;;17.49;37.92;100732.59;5005502;28;20539;-64
2023/05/11 07:29:13;;;;;;;0.20;0.20;;;;;;;17.61;37.46;100735.69;5005324;28;20049;-62
2023/05/11 07:31:38;;;;;;;0.60;0.60;;;;;;;17.69;37.44;100737.16;5005435;28;20026;-62
2023/05/11 07:34:04;;;;;;;0.30;0.30;;;;;;;17.97;37.02;100738.03;5005304;28;20037;-64
2023/05/11 07:36:29;;;;;;;1.83;1.48;;;;;;;18.25;37.02;100730.94;5005303;28;20072;-62
2023/05/11 07:38:56;;;;;;;0.30;0.30;;;;;;;18.68;36.78;100733.78;5007593;28;20026;-65
2023/05/11 07:41:25;;;;;;;0.20;0.20;;;;;;;19.44;35.31;100737.94;5009192;28;20018;-63
2023/05/11 07:43:51;;;;;;;0.30;0.30;;;;;;;20.01;34.71;100742.63;5009265;28;20082;-63
2023/05/11 07:46:16;;;;;;;0.22;0.22;;;;;;;20.64;34.70;100739.94;5009356;28;20030;-64
2023/05/11 07:48:41;;;;;;;0.20;0.20;;;;;;;21.22;33.99;100750.50;5009132;28;20023;-63
2023/05/11 07:51:07;;;;;;;0.20;0.20;;;;;;;21.88;33.12;100751.72;5008969;28;20336;-63
2023/05/11 07:53:33;;;;;;;0.20;0.20;;;;;;;22.59;32.97;100750.75;5008896;28;20022;-64
2023/05/11 07:55:59;;;;;;;0.20;0.20;;;;;;;23.23;31.10;100752.56;5009104;28;20038;-64
2023/05/11 07:58:25;;;;;;;0.45;0.43;;;;;;;23.40;29.80;100752.50;4991710;28;20022;-63
2023/05/11 08:00:50;;;;;;;0.25;0.25;;;;;;;23.39;30.05;100752.56;5008873;28;20094;-63
2023/05/11 08:03:16;;;;;;;0.20;0.20;;;;;;;23.57;29.76;100745.38;5009001;28;20030;-63
2023/05/11 08:05:41;;;;;;;0.20;0.20;;;;;;;23.98;30.18;100762.44;5008775;28;20049;-64
2023/05/11 08:08:07;;;;;;;0.10;0.10;;;;;;;24.40;29.46;100753.78;4991404;28;20236;-65
2023/05/11 08:10:32;;;;;;;0.50;0.50;;;;;;;24.71;28.64;100751.84;5008679;28;20022;-62
2023/05/11 08:12:58;;;;;;;0.30;0.30;;;;;;;24.86;27.63;100755.34;5008830;28;20025;-62
2023/05/11 08:15:23;;;;;;;0.10;0.10;;;;;;;24.37;27.96;100753.97;5008419;28;20027;-64
2023/05/11 08:17:49;;;;;;;0.82;0.82;;;;;;;23.90;28.38;100759.38;5008608;28;20029;-63
2023/05/11 08:20:15;;;;;;;0.10;0.10;;;;;;;23.58;28.47;100759.50;5008445;28;20046;-64
2023/05/11 08:22:40;;;;;;;0.20;0.20;;;;;;;23.04;29.49;100777.44;5008580;28;20093;-64
2023/05/11 08:25:06;;;;;;;0.45;0.45;;;;;;;22.86;29.78;100774.03;5008108;28;20026;-64
2023/05/11 08:27:32;;;;;;;0.65;0.65;;;;;;;22.63;29.82;100776.13;5008395;28;20031;-64
2023/05/11 08:29:57;;;;;;;0.13;0.13;;;;;;;22.48;30.22;100777.75;5008212;28;20026;-64
2023/05/11 08:32:22;;;;;;;0.20;0.20;;;;;;;22.50;30.52;100783.81;5008448;28;20532;-63
2023/05/11 08:34:48;;;;;;;0.25;0.25;;;;;;;22.37;30.23;100780.97;5007909;28;20026;-63
2023/05/11 08:37:13;;;;;;;0.47;0.47;;;;;;;22.17;30.44;100780.22;5008247;28;20026;-63
2023/05/11 08:39:39;;;;;;;0.20;0.20;;;;;;;21.98;30.58;100780.31;5008097;28;20486;-63
2023/05/11 08:42:05;;;;;;;0.20;0.20;;;;;;;21.78;31.27;100787.44;5008282;28;20025;-63
2023/05/11 08:44:34;;;;;;;0.20;0.20;;;;;;;21.77;31.00;100778.66;5008128;28;20018;-63
2023/05/11 08:47:00;;;;;;;0.50;0.50;;;;;;;21.65;31.01;100779.22;5008206;28;20026;-64
2023/05/11 08:49:26;;;;;;;0.20;0.20;;;;;;;21.60;31.43;100783.91;5007757;28;20109;-62
2023/05/11 08:51:51;;;;;;;1.33;0.70;;;;;;;21.55;31.63;100786.75;4990447;28;20053;-62
2023/05/11 08:54:17;;;;;;;0.20;0.20;;;;;;;21.75;31.45;100780.50;5007744;28;20030;-63
2023/05/11 08:56:44;;;;;;;0.15;0.15;;;;;;;22.19;31.02;100786.28;5008027;28;20038;-63
2023/05/11 08:59:12;;;;;;;1.45;1.30;;;;;;;22.72;30.99;100791.50;5007725;28;20049;-62
2023/05/11 09:01:40;;;;;;;1.05;1.05;;;;;;;23.15;29.63;100790.06;5007804;28;20018;-64
2023/05/11 09:04:07;;;;;;;0.20;0.20;;;;;;;23.05;29.02;100796.84;5007876;28;20030;-63
2023/05/11 09:06:33;;;;;;;0.30;0.30;;;;;;;22.61;29.97;100793.84;5008021;28;20037;-64
2023/05/11 09:08:58;;;;;;;0.20;0.20;;;;;;;22.81;29.93;100794.59;5007562;28;20103;-65
2023/05/11 09:11:24;;;;;;;0.20;0.20;;;;;;;22.54;29.76;100798.56;5007727;28;20030;-64
2023/05/11 09:13:50;;;;;;;0.68;0.68;;;;;;;21.97;30.39;100789.16;5007568;28;20027;-63
2023/05/11 09:16:15;;;;;;;0.38;0.38;;;;;;;21.95;30.70;100786.59;5007681;28;20157;-62
2023/05/11 09:18:51;;;;;;;0.10;0.10;;;;;;;21.88;30.73;100786.06;5007475;28;20113;-62
2023/05/11 09:21:18;;;;;;;0.20;0.20;;;;;;;21.84;30.94;100789.78;5007421;28;20042;-63
2023/05/11 09:23:43;;;;;;;0.20;0.20;;;;;;;22.29;31.02;100790.16;5007322;28;20101;-64
2023/05/11 09:26:13;;;;;;;0.20;0.20;;;;;;;22.77;29.93;100794.75;4990022;28;20023;-63
2023/05/11 09:28:47;;;;;;;0.20;0.20;;;;;;;22.63;30.33;100784.91;5007495;28;20085;-63
2023/05/11 09:31:34;;;;;;;0.20;0.20;;;;;;;22.38;30.60;100782.69;5007328;28;20030;-63
2023/05/11 09:34:19;;;;;;;0.20;0.20;;;;;;;22.28;30.36;100795.53;5007333;28;20066;-63
2023/05/11 09:36:50;;;;;;;0.90;0.85;;;;;;;21.97;30.90;100789.16;5007167;28;20053;-63
2023/05/11 09:39:18;;;;;;;0.20;0.20;;;;;;;22.13;31.44;100794.53;5007018;28;20030;-64
2023/05/11 09:41:44;;;;;;;0.10;0.10;;;;;;;22.97;31.05;100800.75;5007190;28;20088;-63
2023/05/11 09:44:15;;;;;;;1.17;1.13;;;;;;;24.08;29.79;100780.44;5007021;28;20021;-63
2023/05/11 09:46:43;;;;;;;0.20;0.20;;;;;;;24.98;29.02;100790.94;5007040;28;20057;-63
2023/05/11 09:49:10;;;;;;;0.30;0.30;;;;;;;25.74;28.31;100787.88;5006950;28;20082;-62
2023/05/11 09:51:39;;;;;;;0.20;0.20;;;;;;;27.11;27.09;100790.06;5006984;28;20033;-63
2023/05/11 09:54:25;;;;;;;0.10;0.10;;;;;;;27.61;25.89;100783.78;5006714;28;20034;-63
2023/05/11 09:56:55;;;;;;;0.25;0.25;;;;;;;27.55;25.84;100785.09;5006539;28;20066;-63
2023/05/11 09:59:40;;;;;;;0.10;0.10;;;;;;;28.05;25.80;100785.88;4989323;28;20089;-63
2023/05/11 10:02:19;;;;;;;0.30;0.30;;;;;;;28.30;25.04;100782.16;5006026;28;20053;-64
2023/05/11 10:04:46;;;;;;;0.65;0.65;;;;;;;28.80;24.85;100790.78;5006490;28;20046;-64
2023/05/11 10:07:22;;;;;;;0.20;0.20;;;;;;;28.91;23.43;100789.91;5006624;28;20030;-64
2023/05/11 10:09:49;;;;;;;0.22;0.22;;;;;;;28.71;23.67;100787.00;5006340;28;20026;-63
2023/05/11 10:12:15;;;;;;;0.75;0.75;;;;;;;29.18;23.64;100794.88;5006587;28;20036;-63
2023/05/11 10:14:41;;;;;;;0.80;0.80;;;;;;;29.85;23.25;100785.88;4989138;28;20046;-63
2023/05/11 10:17:09;;;;;;;0.10;0.10;;;;;;;29.92;22.10;100783.53;5006570;28;20022;-64
2023/05/11 10:19:35;;;;;;;0.98;0.63;;;;;;;30.09;22.34;100782.06;5006089;28;20053;-64
2023/05/11 10:22:02;;;;;;;0.30;0.30;;;;;;;29.60;22.30;100793.31;5006536;28;20042;-64
2023/05/11 10:24:28;;;;;;;0.65;0.63;;;;;;;29.19;23.19;100801.91;5006248;28;20122;-63
2023/05/11 10:26:56;;;;;;;0.17;0.17;;;;;;;28.83;22.54;100798.56;5006278;28;20033;-64
2023/05/11 10:29:22;;;;;;;0.20;0.20;;;;;;;28.37;23.16;100795.03;5006329;28;20086;-64
2023/05/11 10:31:50;;;;;;;0.50;0.50;;;;;;;28.03;22.94;100794.00;5006292;28;20045;-63
2023/05/11 10:34:16;;;;;;;0.10;0.10;;;;;;;27.45;23.87;100794.72;5006283;28;20089;-63
2023/05/11 10:36:45;;;;;;;0.70;0.70;;;;;;;26.85;23.97;100795.47;5006285;28;20026;-64
2023/05/11 10:39:10;;;;;;;0.10;0.10;;;;;;;26.23;25.07;100796.09;5005618;28;20032;-63
2023/05/11 10:41:48;;;;;;;0.17;0.17;;;;;;;25.96;25.19;100789.06;5006147;28;20085;-63
2023/05/11 10:44:25;;;;;;;0.50;0.50;;;;;;;26.38;25.68;100796.03;5005888;28;20014;-63
2023/05/11 10:47:10;;;;;;;0.10;0.10;;;;;;;26.72;24.71;100798.13;5006172;28;20081;-63
2023/05/11 10:49:56;;;;;;;0.25;0.25;;;;;;;26.40;24.90;100802.13;5006040;28;20050;-62
2023/05/11 10:52:43;;;;;;;0.10;0.10;;;;;;;25.66;25.71;100805.25;5005859;28;20026;-63
2023/05/11 10:55:35;;;;;;;1.42;1.33;;;;;;;25.28;26.28;100807.66;5005367;28;20026;-63
2023/05/11 10:58:12;;;;;;;0.10;0.10;;;;;;;25.06;26.91;100808.19;5005838;28;20022;-63
2023/05/11 11:01:05;;;;;;;0.82;0.75;;;;;;;25.10;26.48;100807.03;5005776;28;20041;-64
2023/05/11 11:03:31;;;;;;;0.20;0.20;;;;;;;24.75;27.05;100795.88;5005715;28;20052;-64
2023/05/11 11:05:57;;;;;;;0.63;0.57;;;;;;;24.56;27.40;100803.25;5005587;28;20069;-65
2023/05/11 11:08:22;;;;;;;0.10;0.10;;;;;;;24.57;27.16;100804.97;5005754;28;20058;-64
2023/05/11 11:10:50;;;;;;;0.20;0.20;;;;;;;24.33;27.25;100797.56;5020107;23;20057;-62
2023/05/11 11:13:18;;;;;;;0.10;0.10;;;;;;;24.22;27.65;100809.66;5004429;28;20065;-63
2023/05/11 11:15:53;;;;;;;0.20;0.20;;;;;;;24.21;27.89;100815.06;4988009;28;20028;-63
2023/05/11 11:18:25;;;;;;;0.30;0.30;;;;;;;24.13;27.54;100816.38;5005614;28;20057;-63
2023/05/11 11:20:53;;;;;;;0.10;0.10;;;;;;;24.02;27.90;100813.50;5005689;28;20030;-63
2023/05/11 11:23:44;;;;;;;0.20;0.20;;;;;;;23.91;28.10;100806.16;5005649;28;20097;-63
2023/05/11 11:26:14;;;;;;;0.38;0.38;;;;;;;23.61;28.54;100813.16;5005725;28;20045;-64
2023/05/11 11:29:00;;;;;;;0.20;0.20;;;;;;;23.48;28.66;100817.44;5005596;28;20030;-63
2023/05/11 11:31:27;;;;;;;0.13;0.13;;;;;;;23.25;29.00;100823.06;5005660;28;20034;-63
2023/05/11 11:33:57;;;;;;;0.15;0.15;;;;;;;22.99;29.40;100825.34;4987754;28;20030;-63
2023/05/11 11:36:54;;;;;;;5.45;1.23;;;;;;;22.78;29.42;100825.56;5005358;28;20029;-63
2023/05/11 11:39:24;;;;;;;0.17;0.17;;;;;;;22.45;29.72;100823.75;5013447;23;20026;-66